Micoud, Saint Lucia
Current Conditions -  °F | °C
As of 6:00 PM on Saturday 25 Oct 2014 (Local Time) from TLPL Reporting Station
Broken Clouds Broken Clouds  
Wind Chill: 84°   Ceiling: 28000
Heat Index: 94°   Visibility: 6mi
Dew Point: 77°   Wind: 12mph
Humidity: 79%   Direction: 80°E
Pressure: 29.83"   Gusts: NA
Location:  13.82°N, 60.9°W
Report Text: TLPL 252200Z 08010KT 9999 FEW020 BKN280 29/25 Q1010 NOSIG
Loading
Personal Weather Stations






























Interactive Weather Map
Tropical Storm Tracking
New forecast layout! Learn more

10-Day Weather Forecast

Advertisements
Track Severe Weather on mobile